Time;durP1;ratioP1;P1;durP2;ratioP2;P2;SDS_P1;SDS_P2;PMS_P1;PMS_P2;Temp;Humidity;BMP_temperature;BMP_pressure;BME280_temperature;BME280_humidity;BME280_pressure;Samples;Min_cycle;Max_cycle;Signal;HPM_P1;HPM_P2
2022/03/08 00:00:31;;;;;;;10.63;6.72;;;1.50;99.90;;;;;;5043163;28;20183;-52
2022/03/08 00:02:57;;;;;;;9.25;6.55;;;1.40;99.90;;;;;;5044673;28;20120;-53
2022/03/08 00:05:23;;;;;;;11.82;6.40;;;1.30;99.90;;;;;;5052112;28;20032;-51
2022/03/08 00:07:49;;;;;;;13.35;7.40;;;1.20;99.90;;;;;;5045508;28;20048;-50
2022/03/08 00:10:16;;;;;;;11.65;6.90;;;1.20;99.90;;;;;;5033431;28;20041;-55
2022/03/08 00:12:42;;;;;;;9.50;5.95;;;1.10;99.90;;;;;;5034452;28;20490;-55
2022/03/08 00:15:12;;;;;;;9.13;6.82;;;1.10;99.90;;;;;;5031773;28;20082;-55
2022/03/08 00:17:38;;;;;;;13.88;6.93;;;1.10;99.90;;;;;;5029302;28;20706;-55
2022/03/08 00:20:06;;;;;;;9.63;6.40;;;1.10;99.90;;;;;;5040652;28;20045;-55
2022/03/08 00:22:33;;;;;;;13.48;8.27;;;1.10;99.90;;;;;;5050473;28;20048;-55
2022/03/08 00:25:01;;;;;;;12.95;6.40;;;1.10;99.90;;;;;;5032667;28;20521;-49
2022/03/08 00:27:28;;;;;;;10.32;6.78;;;1.10;99.90;;;;;;5033074;28;20030;-51
2022/03/08 00:29:53;;;;;;;10.27;6.13;;;1.10;99.90;;;;;;5034777;28;20037;-50
2022/03/08 00:32:19;;;;;;;10.83;6.73;;;1.10;99.90;;;;;;5033559;28;21055;-50
2022/03/08 00:34:45;;;;;;;10.40;6.60;;;1.10;99.90;;;;;;5043717;28;20034;-54
2022/03/08 00:37:10;;;;;;;11.30;7.05;;;1.10;99.90;;;;;;5032515;28;20068;-51
2022/03/08 00:39:36;;;;;;;9.40;7.10;;;1.10;99.90;;;;;;5040471;28;20510;-54
2022/03/08 00:42:02;;;;;;;10.77;6.00;;;1.10;99.90;;;;;;5032085;28;20088;-52
2022/03/08 00:44:28;;;;;;;13.05;7.18;;;1.10;99.90;;;;;;5044870;28;20025;-54
2022/03/08 00:46:53;;;;;;;14.40;8.33;;;1.10;99.90;;;;;;5050822;28;20448;-53
2022/03/08 00:49:19;;;;;;;14.63;6.60;;;1.20;99.90;;;;;;5036673;28;20029;-51
2022/03/08 00:51:44;;;;;;;12.37;7.93;;;1.20;99.90;;;;;;5032243;28;20041;-52
2022/03/08 00:54:10;;;;;;;10.77;6.77;;;1.20;99.90;;;;;;5042622;28;20072;-55
2022/03/08 00:56:36;;;;;;;12.10;7.80;;;1.20;99.90;;;;;;5049249;28;20124;-53
2022/03/08 00:59:02;;;;;;;15.80;7.73;;;1.20;99.90;;;;;;5042394;28;20032;-50
2022/03/08 01:01:27;;;;;;;10.93;6.38;;;1.30;99.90;;;;;;5033208;28;20045;-50
2022/03/08 01:03:53;;;;;;;15.20;7.27;;;1.30;99.90;;;;;;5037918;28;20057;-51
2022/03/08 01:06:18;;;;;;;14.77;7.07;;;1.30;99.90;;;;;;5049829;28;20115;-55
2022/03/08 01:08:44;;;;;;;14.77;7.77;;;1.30;99.90;;;;;;5046103;28;20116;-54
2022/03/08 01:11:10;;;;;;;11.60;6.60;;;1.30;99.90;;;;;;5036638;28;20041;-50
2022/03/08 01:13:35;;;;;;;11.43;7.00;;;1.30;99.90;;;;;;5046734;28;20439;-54
2022/03/08 01:16:01;;;;;;;11.07;7.30;;;1.30;99.90;;;;;;5038255;28;20045;-53
2022/03/08 01:18:27;;;;;;;18.37;8.23;;;1.30;99.90;;;;;;5047118;28;20033;-54
2022/03/08 01:20:52;;;;;;;12.50;7.60;;;1.20;99.90;;;;;;5033621;28;20049;-55
2022/03/08 01:23:18;;;;;;;13.13;8.07;;;1.20;99.90;;;;;;5045585;28;20059;-50
2022/03/08 01:25:43;;;;;;;16.77;8.30;;;1.20;99.90;;;;;;5051267;28;20037;-51
2022/03/08 01:28:09;;;;;;;11.40;7.93;;;1.20;99.90;;;;;;5038576;28;20306;-54
2022/03/08 01:30:35;;;;;;;13.10;8.73;;;1.20;99.90;;;;;;5031402;28;20051;-52
2022/03/08 01:33:00;;;;;;;11.82;7.72;;;1.10;99.90;;;;;;5031935;28;20128;-53
2022/03/08 01:35:26;;;;;;;11.80;7.43;;;1.10;99.90;;;;;;5031552;28;20095;-52
2022/03/08 01:37:53;;;;;;;14.00;7.67;;;1.00;99.90;;;;;;5036039;28;20507;-55
2022/03/08 01:40:19;;;;;;;14.18;8.80;;;0.90;99.90;;;;;;5050660;28;20394;-56
2022/03/08 01:42:48;;;;;;;14.68;8.57;;;0.90;99.90;;;;;;5034461;28;20225;-53
2022/03/08 01:45:16;;;;;;;13.70;8.90;;;0.90;99.90;;;;;;5031005;28;20092;-53
2022/03/08 01:47:42;;;;;;;11.43;7.82;;;0.90;99.90;;;;;;5046704;28;20410;-55
2022/03/08 01:50:09;;;;;;;12.93;8.15;;;0.80;99.90;;;;;;5051003;28;20041;-50
2022/03/08 01:52:35;;;;;;;15.35;7.85;;;0.80;99.90;;;;;;5038267;28;20505;-52
2022/03/08 01:55:00;;;;;;;12.63;8.47;;;0.80;99.90;;;;;;5047649;28;20029;-54
2022/03/08 01:57:26;;;;;;;14.37;9.33;;;0.80;99.90;;;;;;5031075;28;20030;-52
2022/03/08 01:59:53;;;;;;;15.67;9.57;;;0.80;99.90;;;;;;5039647;28;20086;-55
2022/03/08 02:02:19;;;;;;;14.90;9.23;;;0.80;99.90;;;;;;5032424;28;20120;-51
2022/03/08 02:04:45;;;;;;;20.83;9.45;;;0.80;99.90;;;;;;5040274;28;20045;-52
2022/03/08 02:07:11;;;;;;;15.95;9.05;;;0.80;99.90;;;;;;5030816;28;20044;-54
2022/03/08 02:09:37;;;;;;;15.27;9.93;;;0.80;99.90;;;;;;5031949;28;20033;-56
2022/03/08 02:12:04;;;;;;;12.97;9.53;;;0.80;99.90;;;;;;5031091;28;20495;-53
2022/03/08 02:14:30;;;;;;;14.27;8.27;;;0.80;99.90;;;;;;5038987;28;20807;-54
2022/03/08 02:16:56;;;;;;;16.97;9.80;;;0.70;99.90;;;;;;5048264;28;20128;-54
2022/03/08 02:19:21;;;;;;;12.77;8.93;;;0.70;99.90;;;;;;5033879;28;20307;-53
2022/03/08 02:21:50;;;;;;;15.50;9.50;;;0.70;99.90;;;;;;5034591;28;20041;-51
2022/03/08 02:24:16;;;;;;;17.02;8.77;;;0.60;99.90;;;;;;5030693;28;20314;-53
2022/03/08 02:26:42;;;;;;;;;;;0.60;99.90;;;;;;5049929;28;20556;-54
2022/03/08 02:29:08;;;;;;;19.02;9.90;;;0.60;99.90;;;;;;5048280;28;19917;-53
2022/03/08 02:31:34;;;;;;;16.48;9.80;;;0.60;99.90;;;;;;5032607;28;20422;-55
2022/03/08 02:34:00;;;;;;;16.13;8.85;;;0.60;99.90;;;;;;5031306;28;20510;-53
2022/03/08 02:36:26;;;;;;;15.82;9.70;;;0.60;99.90;;;;;;5032874;28;20148;-55
2022/03/08 02:38:52;;;;;;;19.98;10.98;;;0.60;99.90;;;;;;5030210;28;20124;-55
2022/03/08 02:41:17;;;;;;;16.33;10.50;;;0.60;99.90;;;;;;5043450;28;20045;-55
2022/03/08 02:43:43;;;;;;;16.27;10.67;;;0.50;99.90;;;;;;5040292;28;20503;-50
2022/03/08 02:46:09;;;;;;;17.23;10.27;;;0.50;99.90;;;;;;5030577;28;20041;-54
2022/03/08 02:48:34;;;;;;;18.90;12.17;;;0.50;99.90;;;;;;5031612;28;20040;-53
2022/03/08 02:51:00;;;;;;;15.70;9.37;;;0.50;99.90;;;;;;5039721;28;20067;-51
2022/03/08 02:53:26;;;;;;;15.07;10.55;;;0.50;99.90;;;;;;5047760;28;20033;-53
2022/03/08 02:55:52;;;;;;;18.17;10.57;;;0.50;99.90;;;;;;5040214;28;20140;-54
2022/03/08 02:58:18;;;;;;;15.95;10.90;;;0.50;99.90;;;;;;5040235;28;20406;-54
2022/03/08 03:00:43;;;;;;;18.07;10.83;;;0.50;99.90;;;;;;5044807;28;20045;-54
2022/03/08 03:03:10;;;;;;;15.90;9.83;;;0.50;99.90;;;;;;5048171;28;20128;-55
2022/03/08 03:05:36;;;;;;;12.68;9.23;;;0.50;99.90;;;;;;5043285;28;20112;-51
2022/03/08 03:08:05;;;;;;;18.25;10.88;;;0.40;99.90;;;;;;5050081;28;20454;-55
2022/03/08 03:10:32;;;;;;;21.10;10.80;;;0.40;99.90;;;;;;5038027;28;20045;-53
2022/03/08 03:12:58;;;;;;;20.85;10.32;;;0.40;99.90;;;;;;5042355;28;20398;-55
2022/03/08 03:15:24;;;;;;;;;;;0.40;99.90;;;;;;5037894;28;20110;-55
2022/03/08 03:17:51;;;;;;;16.65;10.88;;;0.40;99.90;;;;;;5042938;28;19944;-54
2022/03/08 03:20:19;;;;;;;18.52;11.25;;;0.40;99.90;;;;;;5033917;28;20040;-52
2022/03/08 03:22:46;;;;;;;18.20;11.50;;;0.40;99.90;;;;;;5051360;28;20520;-55
2022/03/08 03:25:13;;;;;;;18.75;10.35;;;0.40;99.90;;;;;;5053560;28;20458;-53
2022/03/08 03:27:39;;;;;;;;;;;0.40;99.90;;;;;;5042272;28;20049;-56
2022/03/08 03:30:07;;;;;;;16.77;11.38;;;0.40;99.90;;;;;;5034033;28;19924;-54
2022/03/08 03:32:33;;;;;;;18.55;11.15;;;0.40;99.90;;;;;;5047970;28;20115;-55
2022/03/08 03:35:00;;;;;;;18.90;10.77;;;0.40;99.90;;;;;;5053262;28;20136;-55
2022/03/08 03:37:26;;;;;;;18.80;11.52;;;0.40;99.90;;;;;;5051920;28;20078;-54
2022/03/08 03:39:51;;;;;;;18.45;11.77;;;0.40;99.90;;;;;;5053111;28;20375;-55
2022/03/08 03:42:17;;;;;;;21.40;11.00;;;0.40;99.90;;;;;;5041494;28;20033;-51
2022/03/08 03:44:43;;;;;;;17.67;11.47;;;0.40;99.90;;;;;;5033536;28;20346;-55
2022/03/08 03:47:08;;;;;;;18.53;12.20;;;0.40;99.90;;;;;;5050921;28;20086;-53
2022/03/08 03:49:34;;;;;;;20.27;11.80;;;0.40;99.90;;;;;;5053436;28;20033;-55
2022/03/08 03:52:00;;;;;;;20.23;13.13;;;0.40;99.90;;;;;;5035028;28;20048;-53
2022/03/08 03:54:26;;;;;;;18.17;12.52;;;0.30;99.90;;;;;;5033360;28;20568;-53
2022/03/08 03:56:52;;;;;;;20.60;12.17;;;0.30;99.90;;;;;;5033824;28;20037;-55
2022/03/08 03:59:18;;;;;;;19.98;12.55;;;0.30;99.90;;;;;;5050089;28;20076;-54
2022/03/08 04:01:43;;;;;;;20.57;13.07;;;0.30;99.90;;;;;;5051645;28;20069;-54
2022/03/08 04:04:09;;;;;;;17.27;12.50;;;0.30;99.90;;;;;;5051640;28;20394;-55
2022/03/08 04:06:35;;;;;;;19.17;12.20;;;0.30;99.90;;;;;;5049925;28;20435;-55
2022/03/08 04:09:03;;;;;;;23.40;14.07;;;0.30;99.90;;;;;;5052203;28;20029;-55
2022/03/08 04:11:28;;;;;;;23.67;13.55;;;0.30;99.90;;;;;;5050349;28;20502;-54
2022/03/08 04:13:54;;;;;;;20.77;12.47;;;0.20;99.90;;;;;;5051341;28;20082;-55
2022/03/08 04:16:20;;;;;;;17.90;12.27;;;0.20;99.90;;;;;;5050377;28;20146;-54
2022/03/08 04:18:45;;;;;;;21.02;13.60;;;0.20;99.90;;;;;;5044124;28;20045;-55
2022/03/08 04:21:11;;;;;;;19.93;13.00;;;0.20;99.90;;;;;;5041230;28;20099;-54
2022/03/08 04:23:36;;;;;;;24.07;13.30;;;0.20;99.90;;;;;;5033131;28;20041;-54
2022/03/08 04:26:02;;;;;;;24.77;14.13;;;0.20;99.90;;;;;;5040111;28;20036;-54
2022/03/08 04:28:28;;;;;;;20.70;13.70;;;0.20;99.90;;;;;;5036444;28;20102;-53
2022/03/08 04:30:53;;;;;;;22.00;13.50;;;0.20;99.90;;;;;;5031189;28;20353;-55
2022/03/08 04:33:19;;;;;;;21.73;14.00;;;0.20;99.90;;;;;;5047187;28;20064;-54
2022/03/08 04:35:44;;;;;;;21.80;15.13;;;0.10;99.90;;;;;;5052002;28;20120;-55
2022/03/08 04:38:10;;;;;;;22.60;13.80;;;0.10;99.90;;;;;;5039731;28;20044;-52
2022/03/08 04:40:35;;;;;;;22.50;14.43;;;0.10;99.90;;;;;;5048603;28;20049;-55
2022/03/08 04:43:01;;;;;;;20.00;13.87;;;0.00;99.90;;;;;;5040882;28;20033;-55
2022/03/08 04:45:27;;;;;;;20.40;13.23;;;0.00;99.90;;;;;;5032161;28;20034;-54
2022/03/08 04:47:52;;;;;;;19.13;13.13;;;-0.10;99.90;;;;;;5040647;28;20040;-54
2022/03/08 04:50:18;;;;;;;19.57;13.80;;;-0.10;99.90;;;;;;5046593;28;20060;-51
2022/03/08 04:52:45;;;;;;;21.70;13.53;;;-0.20;99.90;;;;;;5044082;28;20030;-55
2022/03/08 04:55:12;;;;;;;22.45;14.05;;;-0.30;99.90;;;;;;5044881;28;20055;-52
2022/03/08 04:57:37;;;;;;;24.60;14.55;;;-0.30;99.90;;;;;;5043348;28;20064;-56
2022/03/08 05:00:05;;;;;;;23.63;14.70;;;-0.30;99.90;;;;;;5033305;28;20502;-55
2022/03/08 05:02:31;;;;;;;22.83;14.27;;;-0.30;99.90;;;;;;5036011;28;20397;-53
2022/03/08 05:04:57;;;;;;;22.37;14.23;;;-0.30;99.90;;;;;;5038016;28;20033;-51
2022/03/08 05:07:22;;;;;;;24.07;14.90;;;-0.30;99.90;;;;;;5033469;28;20033;-51
2022/03/08 05:09:48;;;;;;;24.63;13.53;;;-0.30;99.90;;;;;;5047261;28;20555;-51
2022/03/08 05:12:14;;;;;;;21.33;14.83;;;-0.30;99.90;;;;;;5034942;28;20094;-50
2022/03/08 05:14:39;;;;;;;24.95;15.05;;;-0.30;99.90;;;;;;5031596;28;20414;-51
2022/03/08 05:17:05;;;;;;;22.92;15.60;;;-0.30;99.90;;;;;;5032880;28;20045;-50
2022/03/08 05:19:31;;;;;;;22.60;14.93;;;-0.30;99.90;;;;;;5047496;28;20186;-51
2022/03/08 05:21:56;;;;;;;20.73;13.57;;;-0.30;99.90;;;;;;5043948;28;20486;-51
2022/03/08 05:24:22;;;;;;;21.97;13.77;;;-0.30;99.90;;;;;;5033960;28;20518;-49
2022/03/08 05:26:48;;;;;;;23.17;14.93;;;-0.30;99.90;;;;;;5031623;28;20144;-49
2022/03/08 05:29:14;;;;;;;24.93;15.43;;;-0.30;99.90;;;;;;5047110;28;20112;-49
2022/03/08 05:31:39;;;;;;;25.30;15.27;;;-0.30;99.90;;;;;;5050399;28;20033;-51
2022/03/08 05:34:05;;;;;;;24.57;14.13;;;-0.40;99.90;;;;;;5051609;28;20036;-49
2022/03/08 05:36:31;;;;;;;21.70;14.15;;;-0.30;99.90;;;;;;5041046;28;20068;-51
2022/03/08 05:38:56;;;;;;;25.23;15.60;;;-0.30;99.90;;;;;;5030881;28;20045;-51
2022/03/08 05:41:22;;;;;;;22.90;14.87;;;-0.30;99.90;;;;;;5034851;28;20065;-49
2022/03/08 05:43:47;;;;;;;21.83;14.10;;;-0.30;99.90;;;;;;5047821;28;20064;-49
2022/03/08 05:46:13;;;;;;;22.27;15.13;;;-0.30;99.90;;;;;;5030867;28;20037;-49
2022/03/08 05:48:39;;;;;;;24.60;15.97;;;-0.40;99.90;;;;;;5032612;28;20041;-49
2022/03/08 05:51:04;;;;;;;24.13;14.97;;;-0.40;99.90;;;;;;5048141;28;20080;-51
2022/03/08 05:53:30;;;;;;;26.27;15.23;;;-0.40;99.90;;;;;;5031989;28;20037;-51
2022/03/08 05:55:56;;;;;;;24.10;16.60;;;-0.40;99.90;;;;;;5034903;28;20437;-51
2022/03/08 05:58:21;;;;;;;27.00;16.30;;;-0.40;99.90;;;;;;5031025;28;20545;-49
2022/03/08 06:00:47;;;;;;;23.83;14.02;;;-0.40;99.90;;;;;;5038336;28;20133;-49
2022/03/08 06:03:13;;;;;;;26.88;15.27;;;-0.50;99.90;;;;;;5034196;28;20041;-51
2022/03/08 06:05:39;;;;;;;21.97;14.37;;;-0.60;99.90;;;;;;5049458;28;20036;-52
2022/03/08 06:08:05;;;;;;;20.57;14.53;;;-0.60;99.90;;;;;;5044155;28;20579;-49
2022/03/08 06:10:34;;;;;;;24.50;15.40;;;-0.60;99.90;;;;;;5031345;28;20288;-50
2022/03/08 06:12:59;;;;;;;24.45;15.77;;;-0.60;99.90;;;;;;5033571;28;20514;-49
2022/03/08 06:15:25;;;;;;;21.93;14.90;;;-0.60;99.90;;;;;;5031890;28;20080;-51
2022/03/08 06:17:51;;;;;;;26.77;16.40;;;-0.60;99.90;;;;;;5045874;28;20091;-51
2022/03/08 06:20:17;;;;;;;26.45;15.93;;;-0.60;99.90;;;;;;5042934;28;20041;-50
2022/03/08 06:22:42;;;;;;;22.87;15.50;;;-0.50;99.90;;;;;;5043171;28;20107;-51
2022/03/08 06:25:09;;;;;;;24.63;15.63;;;-0.40;99.90;;;;;;5044594;28;20621;-49
2022/03/08 06:27:35;;;;;;;25.35;15.45;;;-0.20;99.90;;;;;;5039559;28;20032;-51
2022/03/08 06:30:01;;;;;;;23.97;14.33;;;0.00;99.90;;;;;;5048559;28;20044;-49
2022/03/08 06:32:26;;;;;;;24.42;14.75;;;0.30;99.90;;;;;;5046861;28;20037;-51
2022/03/08 06:34:52;;;;;;;34.73;31.50;;;0.50;99.90;;;;;;5029832;28;20037;-52
2022/03/08 06:37:18;;;;;;;30.37;27.30;;;0.80;99.90;;;;;;5031103;28;20112;-53
2022/03/08 06:39:47;;;;;;;25.33;20.85;;;1.00;99.90;;;;;;5043925;28;20188;-49
2022/03/08 06:42:12;;;;;;;25.58;22.73;;;1.30;99.90;;;;;;5029884;28;20415;-50
2022/03/08 06:44:39;;;;;;;21.27;17.67;;;1.60;99.90;;;;;;5036749;28;20038;-49
2022/03/08 06:47:06;;;;;;;;;;;1.90;99.90;;;;;;5029823;28;20044;-51
2022/03/08 06:49:31;;;;;;;22.13;14.15;;;2.30;99.90;;;;;;5034603;28;20048;-51
2022/03/08 06:51:57;;;;;;;19.27;13.27;;;2.60;99.90;;;;;;5034667;28;20516;-49
2022/03/08 06:54:22;;;;;;;23.03;14.60;;;2.90;99.90;;;;;;5036442;28;20163;-50
2022/03/08 06:56:48;;;;;;;16.77;13.03;;;3.20;99.90;;;;;;5036166;28;20042;-52
2022/03/08 06:59:13;;;;;;;18.13;13.20;;;3.50;99.90;;;;;;5034640;28;20041;-52
2022/03/08 07:01:39;;;;;;;16.87;13.37;;;3.90;99.90;;;;;;5030161;28;20037;-51
2022/03/08 07:04:04;;;;;;;19.50;13.93;;;4.20;99.90;;;;;;5048894;28;20048;-49
2022/03/08 07:06:30;;;;;;;22.40;14.47;;;4.40;99.30;;;;;;5049210;28;20033;-51
2022/03/08 07:08:55;;;;;;;23.97;12.93;;;4.70;98.60;;;;;;5030523;28;20480;-51
2022/03/08 07:11:21;;;;;;;19.03;13.27;;;5.00;98.50;;;;;;5030202;28;20037;-49
2022/03/08 07:13:47;;;;;;;21.30;14.97;;;5.20;97.20;;;;;;5030840;28;20494;-49
2022/03/08 07:16:13;;;;;;;18.58;13.80;;;5.40;95.80;;;;;;5038899;28;20049;-49
2022/03/08 07:18:38;;;;;;;18.70;13.70;;;5.20;95.10;;;;;;5047313;28;20041;-51
2022/03/08 07:21:04;;;;;;;23.48;14.50;;;4.80;95.70;;;;;;5037858;28;20072;-50
2022/03/08 07:23:30;;;;;;;23.43;14.60;;;4.50;96.60;;;;;;5032916;28;20388;-52
2022/03/08 07:25:55;;;;;;;20.40;13.45;;;4.30;97.40;;;;;;5040542;28;20037;-52
2022/03/08 07:28:21;;;;;;;16.87;12.37;;;4.00;98.00;;;;;;5047689;28;20045;-54
2022/03/08 07:30:47;;;;;;;21.93;13.27;;;3.90;98.80;;;;;;5039303;28;20515;-53
2022/03/08 07:33:12;;;;;;;22.03;12.73;;;3.80;99.30;;;;;;5036806;28;20045;-48
2022/03/08 07:35:38;;;;;;;20.73;14.00;;;3.70;99.40;;;;;;5042104;28;20287;-49
2022/03/08 07:38:04;;;;;;;22.03;15.80;;;3.60;99.80;;;;;;5038053;28;20052;-52
2022/03/08 07:40:29;;;;;;;17.70;13.10;;;3.50;99.90;;;;;;5042512;28;20036;-52
2022/03/08 07:42:55;;;;;;;22.27;13.37;;;3.40;99.90;;;;;;5029716;28;20054;-55
2022/03/08 07:45:20;;;;;;;19.93;13.90;;;3.30;99.90;;;;;;5032184;28;20052;-52
2022/03/08 07:47:46;;;;;;;21.13;12.83;;;3.30;99.90;;;;;;5037002;28;20069;-54
2022/03/08 07:50:12;;;;;;;21.40;16.07;;;3.30;99.90;;;;;;5047283;28;20607;-49
2022/03/08 07:52:38;;;;;;;20.67;15.68;;;3.40;99.90;;;;;;5044998;28;20040;-51
2022/03/08 07:55:05;;;;;;;22.45;14.93;;;3.40;99.90;;;;;;5043221;28;20116;-51
2022/03/08 07:57:31;;;;;;;20.08;14.13;;;3.40;99.90;;;;;;5037352;28;20044;-49
2022/03/08 07:59:56;;;;;;;19.43;15.67;;;3.50;99.90;;;;;;5041862;28;20135;-53
2022/03/08 08:02:22;;;;;;;18.70;14.10;;;3.40;99.90;;;;;;5036313;28;20044;-52
2022/03/08 08:04:47;;;;;;;21.90;14.33;;;3.50;99.90;;;;;;5037180;28;20048;-55
2022/03/08 08:07:13;;;;;;;21.93;13.83;;;3.50;99.90;;;;;;5036536;28;20134;-50
2022/03/08 08:09:38;;;;;;;18.00;13.70;;;3.60;99.90;;;;;;5032380;28;20406;-48
2022/03/08 08:12:06;;;;;;;21.30;13.63;;;3.60;99.90;;;;;;5040925;28;20416;-48
2022/03/08 08:14:32;;;;;;;20.23;14.68;;;3.70;99.90;;;;;;5045377;28;20046;-53
2022/03/08 08:16:57;;;;;;;19.57;14.20;;;3.80;99.90;;;;;;5041272;28;20052;-49
2022/03/08 08:19:23;;;;;;;17.47;13.30;;;3.90;99.90;;;;;;5045180;28;20052;-48
2022/03/08 08:21:48;;;;;;;18.70;12.27;;;4.00;99.90;;;;;;5050485;28;20118;-49
2022/03/08 08:24:14;;;;;;;17.17;13.50;;;4.10;99.90;;;;;;5049756;28;20056;-54
2022/03/08 08:26:39;;;;;;;20.03;13.37;;;4.20;99.90;;;;;;5045233;28;20040;-52
2022/03/08 08:29:05;;;;;;;17.80;12.47;;;4.30;99.90;;;;;;5041310;28;20132;-55
2022/03/08 08:31:32;;;;;;;17.40;12.23;;;4.40;99.90;;;;;;5032113;28;20069;-54
2022/03/08 08:33:58;;;;;;;17.15;11.27;;;4.50;99.90;;;;;;5042816;28;20037;-50
2022/03/08 08:36:24;;;;;;;18.77;12.73;;;4.50;99.50;;;;;;5047648;28;20056;-49
2022/03/08 08:38:49;;;;;;;21.27;12.93;;;4.60;99.90;;;;;;5038347;28;20495;-51
2022/03/08 08:41:15;;;;;;;16.10;13.30;;;4.70;99.90;;;;;;5041216;28;20099;-55
2022/03/08 08:43:40;;;;;;;19.67;13.80;;;4.80;99.00;;;;;;5047760;28;20530;-51
2022/03/08 08:46:06;;;;;;;17.37;11.73;;;4.90;98.40;;;;;;5050880;28;20371;-52
2022/03/08 08:48:31;;;;;;;15.23;12.23;;;4.90;97.50;;;;;;5035830;28;20037;-51
2022/03/08 08:50:57;;;;;;;14.93;12.07;;;4.90;98.00;;;;;;5046164;28;20040;-52
2022/03/08 08:53:23;;;;;;;17.77;12.00;;;5.00;98.10;;;;;;5048282;28;20059;-51
2022/03/08 08:55:50;;;;;;;15.67;10.93;;;5.10;98.10;;;;;;5035389;28;20041;-53
2022/03/08 08:58:15;;;;;;;17.58;13.75;;;5.20;97.20;;;;;;5038652;28;20295;-55
2022/03/08 09:00:41;;;;;;;17.93;13.97;;;5.30;97.50;;;;;;5031394;28;20046;-56
2022/03/08 09:03:10;;;;;;;15.70;13.33;;;5.30;96.80;;;;;;5040345;28;20034;-50
2022/03/08 09:05:36;;;;;;;17.10;13.27;;;5.40;97.40;;;;;;5038054;28;20410;-56
2022/03/08 09:08:02;;;;;;;14.45;12.43;;;5.40;96.20;;;;;;5028511;28;20111;-54
2022/03/08 09:10:27;;;;;;;14.43;11.88;;;5.50;96.60;;;;;;5033430;28;20037;-50
2022/03/08 09:12:53;;;;;;;14.37;11.57;;;5.60;96.50;;;;;;5028453;28;20564;-54
2022/03/08 09:15:19;;;;;;;15.73;12.35;;;5.70;96.70;;;;;;5039086;28;20069;-52
2022/03/08 09:17:45;;;;;;;15.02;12.07;;;5.80;96.40;;;;;;5036214;28;20439;-53
2022/03/08 09:20:12;;;;;;;14.57;12.03;;;5.80;95.20;;;;;;5038447;28;20079;-55
2022/03/08 09:22:39;;;;;;;17.42;11.43;;;6.00;95.70;;;;;;5039937;28;20140;-54
2022/03/08 09:25:05;;;;;;;12.55;11.20;;;6.10;95.30;;;;;;5040131;28;20325;-50
2022/03/08 09:27:31;;;;;;;15.50;12.50;;;6.20;95.00;;;;;;5042670;28;20032;-53
2022/03/08 09:29:57;;;;;;;15.25;10.68;;;6.30;95.00;;;;;;5032225;28;20560;-56
2022/03/08 09:32:23;;;;;;;17.85;12.68;;;6.40;94.30;;;;;;5039505;28;20045;-51
2022/03/08 09:34:49;;;;;;;18.48;12.25;;;6.50;93.90;;;;;;5029085;28;20037;-52
2022/03/08 09:37:15;;;;;;;14.77;10.90;;;6.60;93.80;;;;;;5032432;28;20092;-56
2022/03/08 09:39:40;;;;;;;11.95;10.70;;;6.70;93.80;;;;;;5030214;28;20076;-54
2022/03/08 09:42:06;;;;;;;15.43;10.77;;;6.80;91.10;;;;;;5029148;28;20057;-56
2022/03/08 09:44:32;;;;;;;13.93;10.13;;;6.80;92.80;;;;;;5037706;28;20601;-54
2022/03/08 09:46:58;;;;;;;12.65;8.80;;;7.00;90.80;;;;;;5033877;28;20057;-51
2022/03/08 09:49:25;;;;;;;10.18;8.65;;;7.10;90.80;;;;;;5039168;28;20118;-53
2022/03/08 09:51:52;;;;;;;8.50;7.57;;;7.10;85.10;;;;;;5034893;28;20113;-55
2022/03/08 09:54:18;;;;;;;7.95;7.15;;;7.20;86.10;;;;;;5039582;28;20052;-54
2022/03/08 09:56:44;;;;;;;9.57;7.90;;;7.20;82.70;;;;;;5041553;28;20040;-54
2022/03/08 09:59:09;;;;;;;10.33;8.43;;;7.30;83.30;;;;;;5026664;28;20037;-54
2022/03/08 10:01:35;;;;;;;9.77;7.30;;;7.30;80.50;;;;;;5032682;28;20124;-52
2022/03/08 10:04:01;;;;;;;10.67;7.90;;;7.40;82.50;;;;;;5033018;28;20072;-56
2022/03/08 10:06:41;;;;;;;12.73;7.07;;;7.40;79.60;;;;;;5030243;28;20645;-51
2022/03/08 10:09:17;;;;;;;8.57;7.57;;;7.50;79.20;;;;;;5043475;28;20421;-54
2022/03/08 10:11:43;;;;;;;6.80;6.20;;;7.60;78.20;;;;;;5041234;28;20045;-52
2022/03/08 10:14:13;;;;;;;8.18;6.55;;;7.70;78.10;;;;;;5032031;28;20044;-50
2022/03/08 10:16:43;;;;;;;8.32;6.03;;;7.70;75.30;;;;;;5025338;28;20046;-57
2022/03/08 10:19:11;;;;;;;7.30;6.20;;;7.80;77.30;;;;;;5034820;28;20090;-51
2022/03/08 10:21:37;;;;;;;8.45;6.75;;;7.90;74.40;;;;;;5030715;28;20392;-50
2022/03/08 10:24:29;;;;;;;7.20;5.70;;;8.00;74.10;;;;;;5038074;28;20043;-52
2022/03/08 10:27:01;;;;;;;7.80;5.35;;;8.10;71.90;;;;;;5029968;28;20111;-53
2022/03/08 10:29:27;;;;;;;7.18;5.82;;;8.10;74.30;;;;;;5033829;28;20045;-51
2022/03/08 10:32:03;;;;;;;7.50;5.53;;;8.10;71.90;;;;;;5035984;28;20391;-50
2022/03/08 10:34:29;;;;;;;9.25;5.32;;;8.20;71.80;;;;;;5041365;28;20052;-51
2022/03/08 10:37:07;;;;;;;7.05;5.30;;;8.30;72.50;;;;;;5026484;28;20045;-51
2022/03/08 10:39:33;;;;;;;9.00;5.95;;;8.30;72.50;;;;;;5043443;28;20045;-53
2022/03/08 10:42:01;;;;;;;6.80;4.95;;;8.40;71.00;;;;;;5034888;28;20046;-52
2022/03/08 10:44:39;;;;;;;7.78;4.72;;;8.40;68.60;;;;;;5025144;28;20056;-54
2022/03/08 10:47:05;;;;;;;5.53;4.80;;;8.40;68.60;;;;;;5033825;28;20037;-52
2022/03/08 10:49:32;;;;;;;5.13;4.63;;;8.50;65.40;;;;;;5034219;28;20072;-52
2022/03/08 10:52:00;;;;;;;4.57;4.00;;;8.50;65.40;;;;;;5034625;28;20033;-52
2022/03/08 10:54:26;;;;;;;6.82;5.30;;;8.50;65.70;;;;;;5030356;28;20087;-55
2022/03/08 10:56:51;;;;;;;7.05;4.50;;;8.50;64.50;;;;;;5030729;28;20037;-53
2022/03/08 10:59:18;;;;;;;7.27;5.37;;;8.50;65.00;;;;;;5032053;28;20044;-54
2022/03/08 11:01:43;;;;;;;4.80;4.07;;;8.60;66.40;;;;;;5043297;28;20049;-54
2022/03/08 11:04:20;;;;;;;5.07;3.30;;;8.70;66.90;;;;;;5034531;28;20038;-52
2022/03/08 11:06:50;;;;;;;4.47;3.28;;;8.80;66.50;;;;;;5044355;28;20056;-54
2022/03/08 11:09:16;;;;;;;5.15;3.70;;;8.90;63.80;;;;;;5045046;28;20037;-55
2022/03/08 11:11:43;;;;;;;8.55;4.13;;;9.00;63.70;;;;;;5043672;28;20044;-54
2022/03/08 11:14:09;;;;;;;;;;;9.00;65.50;;;;;;5044902;28;20486;-54
2022/03/08 11:16:35;;;;;;;4.22;3.30;;;9.00;61.20;;;;;;5044181;28;19971;-56
2022/03/08 11:19:01;;;;;;;4.75;3.85;;;9.00;59.10;;;;;;5045089;28;20048;-51
2022/03/08 11:21:28;;;;;;;5.43;3.83;;;9.00;60.50;;;;;;5044097;28;20365;-53
2022/03/08 11:23:54;;;;;;;5.32;3.40;;;9.10;63.00;;;;;;5043801;28;20068;-54
2022/03/08 11:26:21;;;;;;;;;;;9.10;60.10;;;;;;5044176;28;20443;-54
2022/03/08 11:28:48;;;;;;;2.85;2.58;;;9.00;59.90;;;;;;5034277;28;19917;-53
2022/03/08 11:31:24;;;;;;;4.68;3.28;;;9.10;62.00;;;;;;5025005;28;20045;-54
2022/03/08 11:34:18;;;;;;;5.20;3.10;;;9.10;59.90;;;;;;5044659;28;20106;-55
2022/03/08 11:37:01;;;;;;;3.60;3.30;;;9.20;60.90;;;;;;5044228;28;20029;-51
2022/03/08 11:39:31;;;;;;;4.32;3.35;;;9.30;59.30;;;;;;5028094;28;20119;-54
2022/03/08 11:42:15;;;;;;;4.25;3.83;;;9.30;63.00;;;;;;5046416;28;20040;-52
2022/03/08 11:44:40;;;;;;;6.07;4.10;;;9.40;63.90;;;;;;5047861;28;20049;-53
2022/03/08 11:47:12;;;;;;;4.27;3.90;;;9.50;62.00;;;;;;5042326;28;20206;-51
2022/03/08 11:49:51;;;;;;;6.50;2.88;;;9.70;62.70;;;;;;5044984;28;20433;-56
2022/03/08 11:52:32;;;;;;;6.13;2.92;;;9.70;60.10;;;;;;5048056;28;20098;-53
2022/03/08 11:55:06;;;;;;;6.57;3.53;;;9.70;61.30;;;;;;5047262;28;20045;-50
2022/03/08 11:57:46;;;;;;;5.45;3.15;;;9.80;61.30;;;;;;5040611;28;20045;-54
2022/03/08 12:00:19;;;;;;;4.05;3.58;;;9.70;60.00;;;;;;5028559;28;20335;-50
2022/03/08 12:02:51;;;;;;;5.03;3.67;;;9.70;62.20;;;;;;5027528;28;20046;-53
2022/03/08 12:05:47;;;;;;;3.67;3.20;;;9.90;63.70;;;;;;5045050;28;20457;-55
2022/03/08 12:08:24;;;;;;;4.30;3.53;;;10.10;62.90;;;;;;5030944;28;20113;-56
2022/03/08 12:10:57;;;;;;;4.00;3.42;;;10.10;59.30;;;;;;5028120;28;20037;-55
2022/03/08 12:13:26;;;;;;;3.63;3.22;;;10.10;60.40;;;;;;5028267;28;20138;-56
2022/03/08 12:16:10;;;;;;;4.10;3.63;;;10.10;58.80;;;;;;5026745;28;20116;-54
2022/03/08 12:18:54;;;;;;;4.03;3.53;;;10.10;62.10;;;;;;5034011;28;20091;-55
2022/03/08 12:21:23;;;;;;;4.28;3.33;;;10.10;58.60;;;;;;5041625;28;20486;-55
2022/03/08 12:24:05;;;;;;;4.40;3.67;;;10.10;57.60;;;;;;5037839;28;20121;-54
2022/03/08 12:26:50;;;;;;;4.18;3.35;;;10.10;58.90;;;;;;5037044;28;20083;-57
2022/03/08 12:29:26;;;;;;;4.22;3.40;;;10.00;57.10;;;;;;5043610;28;20077;-56
2022/03/08 12:32:04;;;;;;;3.60;2.50;;;10.00;57.80;;;;;;5038096;28;20049;-56
2022/03/08 12:34:32;;;;;;;5.95;3.10;;;10.10;59.40;;;;;;5030472;28;20051;-55
2022/03/08 12:37:07;;;;;;;5.88;3.10;;;10.20;58.60;;;;;;5035605;28;20041;-51
2022/03/08 12:40:05;;;;;;;4.50;2.15;;;10.20;56.90;;;;;;5030318;28;20044;-55
2022/03/08 12:42:36;;;;;;;4.25;2.17;;;10.20;58.30;;;;;;5026488;28;20045;-52